sensor_id;sensor_type;location;lat;lon;timestamp;temperature;humidity
2327;DHT22;1174;51.588;7.328;2024-03-25T00:01:45;7.00;99.90
2327;DHT22;1174;51.588;7.328;2024-03-25T00:04:12;7.00;99.90
2327;DHT22;1174;51.588;7.328;2024-03-25T00:06:38;6.90;99.90
2327;DHT22;1174;51.588;7.328;2024-03-25T00:09:05;7.00;99.90
2327;DHT22;1174;51.588;7.328;2024-03-25T00:11:33;6.90;99.90
2327;DHT22;1174;51.588;7.328;2024-03-25T00:14:00;6.90;99.90
2327;DHT22;1174;51.588;7.328;2024-03-25T00:16:27;6.90;99.90
2327;DHT22;1174;51.588;7.328;2024-03-25T00:18:54;6.90;99.90
2327;DHT22;1174;51.588;7.328;2024-03-25T00:21:20;6.90;99.90
2327;DHT22;1174;51.588;7.328;2024-03-25T00:23:47;6.90;99.90
2327;DHT22;1174;51.588;7.328;2024-03-25T00:26:15;6.90;99.90
2327;DHT22;1174;51.588;7.328;2024-03-25T00:28:43;6.80;99.90
2327;DHT22;1174;51.588;7.328;2024-03-25T00:31:09;6.80;99.90
2327;DHT22;1174;51.588;7.328;2024-03-25T00:33:37;6.80;99.90
2327;DHT22;1174;51.588;7.328;2024-03-25T00:36:04;6.80;99.90
2327;DHT22;1174;51.588;7.328;2024-03-25T00:38:31;6.80;99.90
2327;DHT22;1174;51.588;7.328;2024-03-25T00:40:57;6.80;99.90
2327;DHT22;1174;51.588;7.328;2024-03-25T00:43:24;6.80;99.90
2327;DHT22;1174;51.588;7.328;2024-03-25T00:45:49;6.90;99.90
2327;DHT22;1174;51.588;7.328;2024-03-25T00:48:18;6.90;99.90
2327;DHT22;1174;51.588;7.328;2024-03-25T00:50:45;6.90;99.90
2327;DHT22;1174;51.588;7.328;2024-03-25T00:53:12;6.80;99.90
2327;DHT22;1174;51.588;7.328;2024-03-25T00:55:39;6.80;99.90
2327;DHT22;1174;51.588;7.328;2024-03-25T00:58:05;6.80;99.90
2327;DHT22;1174;51.588;7.328;2024-03-25T01:00:31;6.70;99.90
2327;DHT22;1174;51.588;7.328;2024-03-25T01:02:58;6.80;99.90
2327;DHT22;1174;51.588;7.328;2024-03-25T01:05:24;6.60;99.90
2327;DHT22;1174;51.588;7.328;2024-03-25T01:07:52;6.60;99.90
2327;DHT22;1174;51.588;7.328;2024-03-25T01:10:18;6.70;99.90
2327;DHT22;1174;51.588;7.328;2024-03-25T01:12:46;6.70;99.90
2327;DHT22;1174;51.588;7.328;2024-03-25T01:15:12;6.80;99.90
2327;DHT22;1174;51.588;7.328;2024-03-25T01:17:39;6.80;99.90
2327;DHT22;1174;51.588;7.328;2024-03-25T01:20:05;6.70;99.90
2327;DHT22;1174;51.588;7.328;2024-03-25T01:22:33;6.60;99.90
2327;DHT22;1174;51.588;7.328;2024-03-25T01:25:01;6.70;99.90
2327;DHT22;1174;51.588;7.328;2024-03-25T01:27:27;6.70;99.90
2327;DHT22;1174;51.588;7.328;2024-03-25T01:29:53;6.70;99.90
2327;DHT22;1174;51.588;7.328;2024-03-25T01:32:22;6.70;99.90
2327;DHT22;1174;51.588;7.328;2024-03-25T01:34:48;6.80;99.90
2327;DHT22;1174;51.588;7.328;2024-03-25T01:37:15;6.60;99.90
2327;DHT22;1174;51.588;7.328;2024-03-25T01:39:43;6.60;99.90
2327;DHT22;1174;51.588;7.328;2024-03-25T01:42:11;6.60;99.90
2327;DHT22;1174;51.588;7.328;2024-03-25T01:44:38;6.60;99.90
2327;DHT22;1174;51.588;7.328;2024-03-25T01:47:05;6.60;99.90
2327;DHT22;1174;51.588;7.328;2024-03-25T01:49:31;6.60;99.90
2327;DHT22;1174;51.588;7.328;2024-03-25T01:51:58;6.60;99.90
2327;DHT22;1174;51.588;7.328;2024-03-25T01:54:24;6.50;99.90
2327;DHT22;1174;51.588;7.328;2024-03-25T01:56:52;6.50;99.90
2327;DHT22;1174;51.588;7.328;2024-03-25T01:59:23;6.60;99.90
2327;DHT22;1174;51.588;7.328;2024-03-25T02:01:51;6.60;99.90
2327;DHT22;1174;51.588;7.328;2024-03-25T02:04:18;6.60;99.90
2327;DHT22;1174;51.588;7.328;2024-03-25T02:06:45;6.50;99.90
2327;DHT22;1174;51.588;7.328;2024-03-25T02:09:12;6.50;99.90
2327;DHT22;1174;51.588;7.328;2024-03-25T02:11:39;6.60;99.90
2327;DHT22;1174;51.588;7.328;2024-03-25T02:14:07;6.60;99.90
2327;DHT22;1174;51.588;7.328;2024-03-25T02:16:35;6.60;99.90
2327;DHT22;1174;51.588;7.328;2024-03-25T02:19:01;6.50;99.90
2327;DHT22;1174;51.588;7.328;2024-03-25T02:21:27;6.50;99.90
2327;DHT22;1174;51.588;7.328;2024-03-25T02:23:55;6.40;99.90
2327;DHT22;1174;51.588;7.328;2024-03-25T02:26:24;6.30;99.90
2327;DHT22;1174;51.588;7.328;2024-03-25T02:28:50;6.30;99.90
2327;DHT22;1174;51.588;7.328;2024-03-25T02:31:17;6.30;99.90
2327;DHT22;1174;51.588;7.328;2024-03-25T02:33:42;6.30;99.90
2327;DHT22;1174;51.588;7.328;2024-03-25T02:36:12;6.30;99.90
2327;DHT22;1174;51.588;7.328;2024-03-25T02:38:38;6.30;99.90
2327;DHT22;1174;51.588;7.328;2024-03-25T02:41:05;6.20;99.90
2327;DHT22;1174;51.588;7.328;2024-03-25T02:43:35;6.10;99.90
2327;DHT22;1174;51.588;7.328;2024-03-25T02:46:02;6.20;99.90
2327;DHT22;1174;51.588;7.328;2024-03-25T02:48:28;6.20;99.90
2327;DHT22;1174;51.588;7.328;2024-03-25T02:50:54;6.20;99.90
2327;DHT22;1174;51.588;7.328;2024-03-25T02:53:21;6.20;99.90
2327;DHT22;1174;51.588;7.328;2024-03-25T02:55:47;6.30;99.90
2327;DHT22;1174;51.588;7.328;2024-03-25T02:58:13;6.30;99.90
2327;DHT22;1174;51.588;7.328;2024-03-25T03:00:41;6.30;99.90
2327;DHT22;1174;51.588;7.328;2024-03-25T03:03:07;6.30;99.90
2327;DHT22;1174;51.588;7.328;2024-03-25T03:05:34;6.30;99.90
2327;DHT22;1174;51.588;7.328;2024-03-25T03:08:00;6.40;99.90
2327;DHT22;1174;51.588;7.328;2024-03-25T03:10:27;6.40;99.90
2327;DHT22;1174;51.588;7.328;2024-03-25T03:12:56;6.30;99.90
2327;DHT22;1174;51.588;7.328;2024-03-25T03:15:22;6.50;99.90
2327;DHT22;1174;51.588;7.328;2024-03-25T03:17:49;6.50;99.90
2327;DHT22;1174;51.588;7.328;2024-03-25T03:20:16;6.50;99.90
2327;DHT22;1174;51.588;7.328;2024-03-25T03:22:42;6.60;99.90
2327;DHT22;1174;51.588;7.328;2024-03-25T03:25:09;6.50;99.90
2327;DHT22;1174;51.588;7.328;2024-03-25T03:27:35;6.60;99.90
2327;DHT22;1174;51.588;7.328;2024-03-25T03:30:02;6.70;99.90
2327;DHT22;1174;51.588;7.328;2024-03-25T03:32:28;6.60;99.90
2327;DHT22;1174;51.588;7.328;2024-03-25T03:34:56;6.60;99.90
2327;DHT22;1174;51.588;7.328;2024-03-25T03:37:21;6.50;99.90
2327;DHT22;1174;51.588;7.328;2024-03-25T03:39:48;6.60;99.90
2327;DHT22;1174;51.588;7.328;2024-03-25T03:42:14;6.60;99.90
2327;DHT22;1174;51.588;7.328;2024-03-25T03:44:41;6.60;99.90
2327;DHT22;1174;51.588;7.328;2024-03-25T03:47:07;6.40;99.90
2327;DHT22;1174;51.588;7.328;2024-03-25T03:49:33;6.50;99.90
2327;DHT22;1174;51.588;7.328;2024-03-25T03:52:01;6.50;99.90
2327;DHT22;1174;51.588;7.328;2024-03-25T03:54:27;6.50;99.90
2327;DHT22;1174;51.588;7.328;2024-03-25T03:56:54;6.60;99.90
2327;DHT22;1174;51.588;7.328;2024-03-25T03:59:20;6.50;99.90
2327;DHT22;1174;51.588;7.328;2024-03-25T04:01:46;6.40;99.90
2327;DHT22;1174;51.588;7.328;2024-03-25T04:04:14;6.40;99.90
2327;DHT22;1174;51.588;7.328;2024-03-25T04:06:40;6.30;99.90
2327;DHT22;1174;51.588;7.328;2024-03-25T04:09:08;6.30;99.90
2327;DHT22;1174;51.588;7.328;2024-03-25T04:11:35;6.30;99.90
2327;DHT22;1174;51.588;7.328;2024-03-25T04:14:02;6.30;99.90
2327;DHT22;1174;51.588;7.328;2024-03-25T04:16:28;6.10;99.90
2327;DHT22;1174;51.588;7.328;2024-03-25T04:18:56;6.10;99.90
2327;DHT22;1174;51.588;7.328;2024-03-25T04:21:22;6.20;99.90
2327;DHT22;1174;51.588;7.328;2024-03-25T04:23:49;6.10;99.90
2327;DHT22;1174;51.588;7.328;2024-03-25T04:26:18;6.10;99.90
2327;DHT22;1174;51.588;7.328;2024-03-25T04:28:45;6.00;99.90
2327;DHT22;1174;51.588;7.328;2024-03-25T04:31:11;5.90;99.90
2327;DHT22;1174;51.588;7.328;2024-03-25T04:33:38;5.80;99.90
2327;DHT22;1174;51.588;7.328;2024-03-25T04:36:04;5.80;99.90
2327;DHT22;1174;51.588;7.328;2024-03-25T04:38:33;5.90;99.90
2327;DHT22;1174;51.588;7.328;2024-03-25T04:40:59;5.80;99.90
2327;DHT22;1174;51.588;7.328;2024-03-25T04:43:26;5.80;99.90
2327;DHT22;1174;51.588;7.328;2024-03-25T04:45:52;5.60;99.90
2327;DHT22;1174;51.588;7.328;2024-03-25T04:48:18;5.60;99.90
2327;DHT22;1174;51.588;7.328;2024-03-25T04:50:44;5.60;99.90
2327;DHT22;1174;51.588;7.328;2024-03-25T04:53:10;5.60;99.90
2327;DHT22;1174;51.588;7.328;2024-03-25T04:55:36;5.50;99.90
2327;DHT22;1174;51.588;7.328;2024-03-25T04:58:02;5.60;99.90
2327;DHT22;1174;51.588;7.328;2024-03-25T05:00:29;5.60;99.90
2327;DHT22;1174;51.588;7.328;2024-03-25T05:02:55;5.80;99.90
2327;DHT22;1174;51.588;7.328;2024-03-25T05:05:21;5.80;99.90
2327;DHT22;1174;51.588;7.328;2024-03-25T05:07:46;5.80;99.90
2327;DHT22;1174;51.588;7.328;2024-03-25T05:10:12;5.80;99.90
2327;DHT22;1174;51.588;7.328;2024-03-25T05:12:41;5.90;99.90
2327;DHT22;1174;51.588;7.328;2024-03-25T05:15:08;6.00;99.90
2327;DHT22;1174;51.588;7.328;2024-03-25T05:17:35;6.00;99.90
2327;DHT22;1174;51.588;7.328;2024-03-25T05:20:01;5.90;99.90
2327;DHT22;1174;51.588;7.328;2024-03-25T05:22:27;5.90;99.90
2327;DHT22;1174;51.588;7.328;2024-03-25T05:24:53;5.90;99.90
2327;DHT22;1174;51.588;7.328;2024-03-25T05:27:19;6.00;99.90
2327;DHT22;1174;51.588;7.328;2024-03-25T05:29:45;5.90;99.90
2327;DHT22;1174;51.588;7.328;2024-03-25T05:32:10;5.90;99.90
2327;DHT22;1174;51.588;7.328;2024-03-25T05:34:38;5.80;99.90
2327;DHT22;1174;51.588;7.328;2024-03-25T05:37:04;5.80;99.90
2327;DHT22;1174;51.588;7.328;2024-03-25T05:39:30;5.80;99.90
2327;DHT22;1174;51.588;7.328;2024-03-25T05:41:55;5.70;99.90
2327;DHT22;1174;51.588;7.328;2024-03-25T05:44:21;5.60;99.90
2327;DHT22;1174;51.588;7.328;2024-03-25T05:46:47;5.50;99.90
2327;DHT22;1174;51.588;7.328;2024-03-25T05:49:13;5.60;99.90
2327;DHT22;1174;51.588;7.328;2024-03-25T05:51:40;5.70;99.90
2327;DHT22;1174;51.588;7.328;2024-03-25T05:54:08;5.60;99.90
2327;DHT22;1174;51.588;7.328;2024-03-25T05:56:34;5.60;99.90
2327;DHT22;1174;51.588;7.328;2024-03-25T05:59:00;5.50;99.90
2327;DHT22;1174;51.588;7.328;2024-03-25T06:01:26;5.50;99.90
2327;DHT22;1174;51.588;7.328;2024-03-25T06:03:52;5.50;99.90
2327;DHT22;1174;51.588;7.328;2024-03-25T06:06:18;5.50;99.90
2327;DHT22;1174;51.588;7.328;2024-03-25T06:08:46;5.50;99.90
2327;DHT22;1174;51.588;7.328;2024-03-25T06:11:11;5.50;99.90
2327;DHT22;1174;51.588;7.328;2024-03-25T06:13:37;5.60;99.90
2327;DHT22;1174;51.588;7.328;2024-03-25T06:16:03;5.80;99.90
2327;DHT22;1174;51.588;7.328;2024-03-25T06:18:29;5.90;99.90
2327;DHT22;1174;51.588;7.328;2024-03-25T06:20:55;5.90;99.90
2327;DHT22;1174;51.588;7.328;2024-03-25T06:23:22;5.80;99.90
2327;DHT22;1174;51.588;7.328;2024-03-25T06:25:51;5.90;99.90
2327;DHT22;1174;51.588;7.328;2024-03-25T06:28:17;6.00;99.90
2327;DHT22;1174;51.588;7.328;2024-03-25T06:30:43;6.10;99.90
2327;DHT22;1174;51.588;7.328;2024-03-25T06:33:27;6.20;99.90
2327;DHT22;1174;51.588;7.328;2024-03-25T06:36:11;6.30;99.90
2327;DHT22;1174;51.588;7.328;2024-03-25T06:38:37;6.40;99.90
2327;DHT22;1174;51.588;7.328;2024-03-25T06:41:05;6.40;99.90
2327;DHT22;1174;51.588;7.328;2024-03-25T06:43:30;6.40;99.90
2327;DHT22;1174;51.588;7.328;2024-03-25T06:45:56;6.50;99.90
2327;DHT22;1174;51.588;7.328;2024-03-25T06:48:22;6.50;99.90
2327;DHT22;1174;51.588;7.328;2024-03-25T06:50:55;6.70;99.90
2327;DHT22;1174;51.588;7.328;2024-03-25T06:53:22;6.80;99.90
2327;DHT22;1174;51.588;7.328;2024-03-25T06:55:52;6.80;99.90
2327;DHT22;1174;51.588;7.328;2024-03-25T06:58:20;6.80;99.90
2327;DHT22;1174;51.588;7.328;2024-03-25T07:00:46;6.80;99.90
2327;DHT22;1174;51.588;7.328;2024-03-25T07:03:13;7.00;99.90
2327;DHT22;1174;51.588;7.328;2024-03-25T07:05:38;7.40;99.90
2327;DHT22;1174;51.588;7.328;2024-03-25T07:08:05;8.20;99.90
2327;DHT22;1174;51.588;7.328;2024-03-25T07:10:32;8.80;99.90
2327;DHT22;1174;51.588;7.328;2024-03-25T07:12:58;9.30;99.90
2327;DHT22;1174;51.588;7.328;2024-03-25T07:15:25;10.10;99.90
2327;DHT22;1174;51.588;7.328;2024-03-25T07:17:51;10.20;99.90
2327;DHT22;1174;51.588;7.328;2024-03-25T07:20:17;10.60;99.90
2327;DHT22;1174;51.588;7.328;2024-03-25T07:22:43;10.60;99.90
2327;DHT22;1174;51.588;7.328;2024-03-25T07:25:09;10.50;99.90
2327;DHT22;1174;51.588;7.328;2024-03-25T07:27:35;9.80;99.90
2327;DHT22;1174;51.588;7.328;2024-03-25T07:30:08;9.50;99.90
2327;DHT22;1174;51.588;7.328;2024-03-25T07:32:35;9.30;99.90
2327;DHT22;1174;51.588;7.328;2024-03-25T07:35:01;9.20;99.90
2327;DHT22;1174;51.588;7.328;2024-03-25T07:37:27;9.30;99.90
2327;DHT22;1174;51.588;7.328;2024-03-25T07:39:53;9.30;99.90
2327;DHT22;1174;51.588;7.328;2024-03-25T07:42:19;9.20;99.90
2327;DHT22;1174;51.588;7.328;2024-03-25T07:44:45;9.30;99.90
2327;DHT22;1174;51.588;7.328;2024-03-25T07:47:11;9.20;99.90
2327;DHT22;1174;51.588;7.328;2024-03-25T07:49:38;9.50;99.90
2327;DHT22;1174;51.588;7.328;2024-03-25T07:52:04;9.90;99.90
2327;DHT22;1174;51.588;7.328;2024-03-25T07:54:32;10.00;99.90
2327;DHT22;1174;51.588;7.328;2024-03-25T07:56:58;10.40;99.90
2327;DHT22;1174;51.588;7.328;2024-03-25T07:59:24;10.50;99.90
2327;DHT22;1174;51.588;7.328;2024-03-25T08:01:50;10.80;99.90
2327;DHT22;1174;51.588;7.328;2024-03-25T08:04:16;11.00;99.90
2327;DHT22;1174;51.588;7.328;2024-03-25T08:06:44;11.40;99.90
2327;DHT22;1174;51.588;7.328;2024-03-25T08:09:09;11.30;99.90
2327;DHT22;1174;51.588;7.328;2024-03-25T08:11:35;11.60;99.90
2327;DHT22;1174;51.588;7.328;2024-03-25T08:14:01;11.70;99.90
2327;DHT22;1174;51.588;7.328;2024-03-25T08:16:27;12.20;99.90
2327;DHT22;1174;51.588;7.328;2024-03-25T08:18:53;12.90;99.90
2327;DHT22;1174;51.588;7.328;2024-03-25T08:21:19;13.30;99.90
2327;DHT22;1174;51.588;7.328;2024-03-25T08:23:46;13.30;99.90
2327;DHT22;1174;51.588;7.328;2024-03-25T08:26:12;14.20;99.90
2327;DHT22;1174;51.588;7.328;2024-03-25T08:28:38;14.30;99.90
2327;DHT22;1174;51.588;7.328;2024-03-25T08:31:04;14.20;99.90
2327;DHT22;1174;51.588;7.328;2024-03-25T08:33:30;13.90;99.90
2327;DHT22;1174;51.588;7.328;2024-03-25T08:35:56;15.00;99.90
2327;DHT22;1174;51.588;7.328;2024-03-25T08:38:22;15.70;99.90
2327;DHT22;1174;51.588;7.328;2024-03-25T08:40:50;16.40;99.90
2327;DHT22;1174;51.588;7.328;2024-03-25T08:43:16;16.40;99.90
2327;DHT22;1174;51.588;7.328;2024-03-25T08:45:43;17.00;99.90
2327;DHT22;1174;51.588;7.328;2024-03-25T08:48:08;17.10;99.90
2327;DHT22;1174;51.588;7.328;2024-03-25T08:50:34;17.20;99.90
2327;DHT22;1174;51.588;7.328;2024-03-25T08:53:00;15.70;99.90
2327;DHT22;1174;51.588;7.328;2024-03-25T08:55:27;14.80;99.90
2327;DHT22;1174;51.588;7.328;2024-03-25T08:57:54;13.60;99.90
2327;DHT22;1174;51.588;7.328;2024-03-25T09:00:20;13.10;99.90
2327;DHT22;1174;51.588;7.328;2024-03-25T09:02:46;13.40;99.90
2327;DHT22;1174;51.588;7.328;2024-03-25T09:05:15;14.40;99.90
2327;DHT22;1174;51.588;7.328;2024-03-25T09:07:41;14.40;99.90
2327;DHT22;1174;51.588;7.328;2024-03-25T09:10:08;13.80;99.90
2327;DHT22;1174;51.588;7.328;2024-03-25T09:12:53;12.70;99.90
2327;DHT22;1174;51.588;7.328;2024-03-25T09:15:19;12.40;99.90
2327;DHT22;1174;51.588;7.328;2024-03-25T09:17:45;12.50;99.90
2327;DHT22;1174;51.588;7.328;2024-03-25T09:20:11;12.60;99.90
2327;DHT22;1174;51.588;7.328;2024-03-25T09:22:38;12.80;99.90
2327;DHT22;1174;51.588;7.328;2024-03-25T09:25:05;12.90;99.90
2327;DHT22;1174;51.588;7.328;2024-03-25T09:27:31;13.20;99.90
2327;DHT22;1174;51.588;7.328;2024-03-25T09:29:58;13.40;99.90
2327;DHT22;1174;51.588;7.328;2024-03-25T09:32:24;13.30;99.90
2327;DHT22;1174;51.588;7.328;2024-03-25T09:34:49;13.90;99.90
2327;DHT22;1174;51.588;7.328;2024-03-25T09:37:15;15.30;99.90
2327;DHT22;1174;51.588;7.328;2024-03-25T09:39:41;16.20;99.90
2327;DHT22;1174;51.588;7.328;2024-03-25T09:42:12;17.00;99.90
2327;DHT22;1174;51.588;7.328;2024-03-25T09:44:42;16.30;99.90
2327;DHT22;1174;51.588;7.328;2024-03-25T09:47:10;15.30;99.90
2327;DHT22;1174;51.588;7.328;2024-03-25T09:49:40;14.40;99.90
2327;DHT22;1174;51.588;7.328;2024-03-25T09:52:06;14.10;99.90
2327;DHT22;1174;51.588;7.328;2024-03-25T09:54:32;14.00;99.90
2327;DHT22;1174;51.588;7.328;2024-03-25T09:57:00;14.10;99.90
2327;DHT22;1174;51.588;7.328;2024-03-25T09:59:26;14.20;99.90
2327;DHT22;1174;51.588;7.328;2024-03-25T10:01:53;14.00;99.90
2327;DHT22;1174;51.588;7.328;2024-03-25T10:04:21;13.80;99.90
2327;DHT22;1174;51.588;7.328;2024-03-25T10:06:47;13.50;99.90
2327;DHT22;1174;51.588;7.328;2024-03-25T10:09:13;13.20;99.90
2327;DHT22;1174;51.588;7.328;2024-03-25T10:11:39;12.80;99.90
2327;DHT22;1174;51.588;7.328;2024-03-25T10:14:05;12.70;99.90
2327;DHT22;1174;51.588;7.328;2024-03-25T10:16:31;12.80;99.90
2327;DHT22;1174;51.588;7.328;2024-03-25T10:18:56;12.90;99.90
2327;DHT22;1174;51.588;7.328;2024-03-25T10:21:24;13.80;99.90
2327;DHT22;1174;51.588;7.328;2024-03-25T10:23:49;14.60;99.90
2327;DHT22;1174;51.588;7.328;2024-03-25T10:26:26;14.90;99.90
2327;DHT22;1174;51.588;7.328;2024-03-25T10:28:59;14.60;99.90
2327;DHT22;1174;51.588;7.328;2024-03-25T10:31:26;14.00;99.90
2327;DHT22;1174;51.588;7.328;2024-03-25T10:33:52;13.70;99.90
2327;DHT22;1174;51.588;7.328;2024-03-25T10:36:20;13.40;99.90
2327;DHT22;1174;51.588;7.328;2024-03-25T10:38:54;13.30;99.90
2327;DHT22;1174;51.588;7.328;2024-03-25T10:41:21;13.50;99.90
2327;DHT22;1174;51.588;7.328;2024-03-25T10:43:47;14.10;99.90
2327;DHT22;1174;51.588;7.328;2024-03-25T10:46:19;15.80;99.90
2327;DHT22;1174;51.588;7.328;2024-03-25T10:48:51;17.20;99.90
2327;DHT22;1174;51.588;7.328;2024-03-25T10:51:20;18.70;99.90
2327;DHT22;1174;51.588;7.328;2024-03-25T10:53:48;19.60;95.50
2327;DHT22;1174;51.588;7.328;2024-03-25T10:56:17;19.90;93.60
2327;DHT22;1174;51.588;7.328;2024-03-25T10:58:46;20.30;94.20
2327;DHT22;1174;51.588;7.328;2024-03-25T11:01:12;20.00;92.10
2327;DHT22;1174;51.588;7.328;2024-03-25T11:03:38;19.20;92.50
2327;DHT22;1174;51.588;7.328;2024-03-25T11:06:05;18.70;93.60
2327;DHT22;1174;51.588;7.328;2024-03-25T11:08:31;18.20;92.70
2327;DHT22;1174;51.588;7.328;2024-03-25T11:10:58;17.50;93.30
2327;DHT22;1174;51.588;7.328;2024-03-25T11:13:27;17.80;94.30
2327;DHT22;1174;51.588;7.328;2024-03-25T11:15:53;18.10;92.30
2327;DHT22;1174;51.588;7.328;2024-03-25T11:18:23;18.50;90.80
2327;DHT22;1174;51.588;7.328;2024-03-25T11:21:00;18.60;90.20
2327;DHT22;1174;51.588;7.328;2024-03-25T11:23:26;18.70;90.00
2327;DHT22;1174;51.588;7.328;2024-03-25T11:25:55;18.70;89.60
2327;DHT22;1174;51.588;7.328;2024-03-25T11:28:28;18.80;89.20
2327;DHT22;1174;51.588;7.328;2024-03-25T11:30:55;18.50;89.80
2327;DHT22;1174;51.588;7.328;2024-03-25T11:33:21;18.80;92.20
2327;DHT22;1174;51.588;7.328;2024-03-25T11:35:47;19.10;88.70
2327;DHT22;1174;51.588;7.328;2024-03-25T11:38:13;18.50;90.50
2327;DHT22;1174;51.588;7.328;2024-03-25T11:40:42;17.90;88.00
2327;DHT22;1174;51.588;7.328;2024-03-25T11:43:09;18.60;91.00
2327;DHT22;1174;51.588;7.328;2024-03-25T11:45:36;19.20;90.80
2327;DHT22;1174;51.588;7.328;2024-03-25T11:48:06;20.10;88.50
2327;DHT22;1174;51.588;7.328;2024-03-25T11:50:34;21.40;87.00
2327;DHT22;1174;51.588;7.328;2024-03-25T11:53:04;22.10;85.10
2327;DHT22;1174;51.588;7.328;2024-03-25T11:55:30;21.80;78.70
2327;DHT22;1174;51.588;7.328;2024-03-25T11:57:56;21.80;79.70
2327;DHT22;1174;51.588;7.328;2024-03-25T12:00:23;22.00;75.50
2327;DHT22;1174;51.588;7.328;2024-03-25T12:02:51;22.00;74.10
2327;DHT22;1174;51.588;7.328;2024-03-25T12:05:17;22.50;70.70
2327;DHT22;1174;51.588;7.328;2024-03-25T12:07:43;21.70;69.00
2327;DHT22;1174;51.588;7.328;2024-03-25T12:10:09;21.60;70.40
2327;DHT22;1174;51.588;7.328;2024-03-25T12:12:55;21.70;67.20
2327;DHT22;1174;51.588;7.328;2024-03-25T12:15:21;21.60;65.80
2327;DHT22;1174;51.588;7.328;2024-03-25T12:17:47;21.60;66.80
2327;DHT22;1174;51.588;7.328;2024-03-25T12:20:15;21.90;62.90
2327;DHT22;1174;51.588;7.328;2024-03-25T12:22:41;21.90;62.30
2327;DHT22;1174;51.588;7.328;2024-03-25T12:25:08;22.20;61.70
2327;DHT22;1174;51.588;7.328;2024-03-25T12:27:35;22.00;62.10
2327;DHT22;1174;51.588;7.328;2024-03-25T12:30:02;20.50;62.90
2327;DHT22;1174;51.588;7.328;2024-03-25T12:32:36;20.20;65.30
2327;DHT22;1174;51.588;7.328;2024-03-25T12:35:02;20.70;64.50
2327;DHT22;1174;51.588;7.328;2024-03-25T12:37:30;21.20;66.70
2327;DHT22;1174;51.588;7.328;2024-03-25T12:39:56;21.20;65.70
2327;DHT22;1174;51.588;7.328;2024-03-25T12:42:23;21.30;64.50
2327;DHT22;1174;51.588;7.328;2024-03-25T12:44:49;21.40;63.70
2327;DHT22;1174;51.588;7.328;2024-03-25T12:47:15;21.00;64.40
2327;DHT22;1174;51.588;7.328;2024-03-25T12:49:41;21.20;63.70
2327;DHT22;1174;51.588;7.328;2024-03-25T12:52:07;20.70;64.20
2327;DHT22;1174;51.588;7.328;2024-03-25T12:54:35;20.00;64.80
2327;DHT22;1174;51.588;7.328;2024-03-25T12:57:01;19.20;66.50
2327;DHT22;1174;51.588;7.328;2024-03-25T12:59:26;18.60;66.70
2327;DHT22;1174;51.588;7.328;2024-03-25T13:01:52;19.30;70.60
2327;DHT22;1174;51.588;7.328;2024-03-25T13:04:18;20.10;67.20
2327;DHT22;1174;51.588;7.328;2024-03-25T13:06:44;20.60;69.60
2327;DHT22;1174;51.588;7.328;2024-03-25T13:09:10;21.90;64.80
2327;DHT22;1174;51.588;7.328;2024-03-25T13:11:38;22.30;62.10
2327;DHT22;1174;51.588;7.328;2024-03-25T13:14:04;22.30;60.70
2327;DHT22;1174;51.588;7.328;2024-03-25T13:16:30;20.30;60.50
2327;DHT22;1174;51.588;7.328;2024-03-25T13:18:56;19.70;62.90
2327;DHT22;1174;51.588;7.328;2024-03-25T13:21:22;19.90;63.50
2327;DHT22;1174;51.588;7.328;2024-03-25T13:23:50;21.50;68.60
2327;DHT22;1174;51.588;7.328;2024-03-25T13:26:16;21.90;60.50
2327;DHT22;1174;51.588;7.328;2024-03-25T13:28:43;21.00;58.60
2327;DHT22;1174;51.588;7.328;2024-03-25T13:31:09;20.30;59.10
2327;DHT22;1174;51.588;7.328;2024-03-25T13:33:35;19.50;59.20
2327;DHT22;1174;51.588;7.328;2024-03-25T13:36:01;18.50;60.80
2327;DHT22;1174;51.588;7.328;2024-03-25T13:38:27;17.40;61.40
2327;DHT22;1174;51.588;7.328;2024-03-25T13:40:53;16.70;65.70
2327;DHT22;1174;51.588;7.328;2024-03-25T13:43:19;17.50;70.10
2327;DHT22;1174;51.588;7.328;2024-03-25T13:45:49;19.10;61.50
2327;DHT22;1174;51.588;7.328;2024-03-25T13:48:16;20.50;68.10
2327;DHT22;1174;51.588;7.328;2024-03-25T13:50:42;21.20;61.20
2327;DHT22;1174;51.588;7.328;2024-03-25T13:53:08;21.50;61.20
2327;DHT22;1174;51.588;7.328;2024-03-25T13:55:34;22.50;58.80
2327;DHT22;1174;51.588;7.328;2024-03-25T13:58:00;23.20;59.60
2327;DHT22;1174;51.588;7.328;2024-03-25T14:00:26;22.50;56.30
2327;DHT22;1174;51.588;7.328;2024-03-25T14:02:54;20.20;59.30
2327;DHT22;1174;51.588;7.328;2024-03-25T14:05:20;19.20;58.80
2327;DHT22;1174;51.588;7.328;2024-03-25T14:07:46;17.90;62.30
2327;DHT22;1174;51.588;7.328;2024-03-25T14:10:12;17.50;63.60
2327;DHT22;1174;51.588;7.328;2024-03-25T14:12:38;16.60;65.80
2327;DHT22;1174;51.588;7.328;2024-03-25T14:15:05;16.20;62.80
2327;DHT22;1174;51.588;7.328;2024-03-25T14:17:31;16.30;64.50
2327;DHT22;1174;51.588;7.328;2024-03-25T14:19:58;16.30;63.20
2327;DHT22;1174;51.588;7.328;2024-03-25T14:22:24;17.00;63.20
2327;DHT22;1174;51.588;7.328;2024-03-25T14:24:50;17.10;64.10
2327;DHT22;1174;51.588;7.328;2024-03-25T14:27:16;16.90;62.30
2327;DHT22;1174;51.588;7.328;2024-03-25T14:29:42;16.90;63.10
2327;DHT22;1174;51.588;7.328;2024-03-25T14:32:08;17.60;62.30
2327;DHT22;1174;51.588;7.328;2024-03-25T14:34:34;17.60;62.40
2327;DHT22;1174;51.588;7.328;2024-03-25T14:37:01;17.40;62.40
2327;DHT22;1174;51.588;7.328;2024-03-25T14:39:27;18.40;65.00
2327;DHT22;1174;51.588;7.328;2024-03-25T14:41:53;20.10;63.50
2327;DHT22;1174;51.588;7.328;2024-03-25T14:44:19;21.30;59.80
2327;DHT22;1174;51.588;7.328;2024-03-25T14:46:45;20.40;59.30
2327;DHT22;1174;51.588;7.328;2024-03-25T14:49:11;19.80;59.20
2327;DHT22;1174;51.588;7.328;2024-03-25T14:51:37;18.10;60.30
2327;DHT22;1174;51.588;7.328;2024-03-25T14:54:05;17.30;60.20
2327;DHT22;1174;51.588;7.328;2024-03-25T14:56:31;16.60;64.40
2327;DHT22;1174;51.588;7.328;2024-03-25T14:58:57;16.10;64.20
2327;DHT22;1174;51.588;7.328;2024-03-25T15:01:23;15.90;65.80
2327;DHT22;1174;51.588;7.328;2024-03-25T15:03:49;15.60;64.50
2327;DHT22;1174;51.588;7.328;2024-03-25T15:06:15;15.20;65.30
2327;DHT22;1174;51.588;7.328;2024-03-25T15:08:41;15.40;65.20
2327;DHT22;1174;51.588;7.328;2024-03-25T15:11:09;15.50;65.80
2327;DHT22;1174;51.588;7.328;2024-03-25T15:13:35;15.90;65.00
2327;DHT22;1174;51.588;7.328;2024-03-25T15:16:04;15.90;66.90
2327;DHT22;1174;51.588;7.328;2024-03-25T15:18:29;16.70;65.30
2327;DHT22;1174;51.588;7.328;2024-03-25T15:21:02;17.70;63.40
2327;DHT22;1174;51.588;7.328;2024-03-25T15:23:28;18.00;61.00
2327;DHT22;1174;51.588;7.328;2024-03-25T15:25:54;17.40;61.90
2327;DHT22;1174;51.588;7.328;2024-03-25T15:28:27;17.20;62.40
2327;DHT22;1174;51.588;7.328;2024-03-25T15:30:53;16.30;61.30
2327;DHT22;1174;51.588;7.328;2024-03-25T15:33:20;15.30;63.80
2327;DHT22;1174;51.588;7.328;2024-03-25T15:35:46;15.10;65.60
2327;DHT22;1174;51.588;7.328;2024-03-25T15:38:12;15.10;65.80
2327;DHT22;1174;51.588;7.328;2024-03-25T15:40:37;15.00;64.80
2327;DHT22;1174;51.588;7.328;2024-03-25T15:43:03;15.20;65.50
2327;DHT22;1174;51.588;7.328;2024-03-25T15:45:31;14.70;65.20
2327;DHT22;1174;51.588;7.328;2024-03-25T15:47:57;14.70;67.40
2327;DHT22;1174;51.588;7.328;2024-03-25T15:50:23;14.60;68.30
2327;DHT22;1174;51.588;7.328;2024-03-25T15:52:49;14.40;69.60
2327;DHT22;1174;51.588;7.328;2024-03-25T15:55:14;14.50;69.70
2327;DHT22;1174;51.588;7.328;2024-03-25T15:57:40;14.50;70.50
2327;DHT22;1174;51.588;7.328;2024-03-25T16:00:07;14.30;71.30
2327;DHT22;1174;51.588;7.328;2024-03-25T16:02:35;13.90;72.30
2327;DHT22;1174;51.588;7.328;2024-03-25T16:05:01;14.10;72.50
2327;DHT22;1174;51.588;7.328;2024-03-25T16:07:27;14.20;73.50